Time;durP1;ratioP1;P1;durP2;ratioP2;P2;SDS_P1;SDS_P2;PMS_P1;PMS_P2;Temp;Humidity;BMP_temperature;BMP_pressure;BME280_temperature;BME280_humidity;BME280_pressure;Samples;Min_cycle;Max_cycle;Signal;HPM_P1;HPM_P2
2022/09/18 00:01:24;;;;;;;2.95;2.03;;;;;;;11.46;78.86;98887.78;4362815;32;33323;-77
2022/09/18 00:03:54;;;;;;;2.90;1.87;;;;;;;11.56;79.04;98881.50;4362711;32;33545;-77
2022/09/18 00:06:23;;;;;;;2.35;1.77;;;;;;;11.23;80.84;98887.28;4363146;32;34211;-77
2022/09/18 00:08:52;;;;;;;3.45;2.17;;;;;;;11.31;80.41;98887.81;4348846;32;33698;-77
2022/09/18 00:11:22;;;;;;;2.83;1.87;;;;;;;11.67;79.01;98883.09;4349501;32;33570;-77
2022/09/18 00:13:50;;;;;;;5.75;2.25;;;;;;;11.50;79.81;98872.56;4349937;32;33292;-76
2022/09/18 00:16:19;;;;;;;3.65;2.10;;;;;;;11.56;79.28;98874.16;4349510;32;34259;-77
2022/09/18 00:18:47;;;;;;;4.15;2.30;;;;;;;11.31;80.13;98872.31;4362551;32;34576;-77
2022/09/18 00:21:27;;;;;;;2.85;1.90;;;;;;;11.99;76.95;98869.12;4362706;32;33387;-76
2022/09/18 00:23:56;;;;;;;5.47;2.10;;;;;;;11.85;77.67;98876.22;4362884;32;34071;-79
2022/09/18 00:26:24;;;;;;;3.67;2.20;;;;;;;11.85;77.04;98882.47;4349341;32;35070;-76
2022/09/18 00:28:52;;;;;;;3.33;1.95;;;;;;;11.44;78.14;98873.66;4362196;32;33939;-76
2022/09/18 00:31:24;;;;;;;3.45;1.62;;;;;;;11.37;77.26;98876.66;4362638;32;34465;-79
2022/09/18 00:33:52;;;;;;;3.67;2.37;;;;;;;11.83;75.66;98876.50;4362895;32;34672;-79
2022/09/18 00:36:20;;;;;;;4.87;2.10;;;;;;;11.22;77.45;98877.50;4362658;32;35154;-77
2022/09/18 00:38:48;;;;;;;3.33;1.65;;;;;;;11.64;76.64;98880.91;4362523;32;34002;-76
2022/09/18 00:41:22;;;;;;;4.53;2.40;;;;;;;11.79;75.28;98882.78;4362762;32;34324;-77
2022/09/18 00:43:51;;;;;;;3.17;1.80;;;;;;;11.86;74.64;98877.88;4362631;32;33975;-77
2022/09/18 00:46:33;;;;;;;3.80;1.90;;;;;;;11.94;73.51;98881.94;4349325;32;34903;-79
2022/09/18 00:49:14;;;;;;;4.57;2.03;;;;;;;11.84;73.95;98872.69;4348971;32;33671;-76
2022/09/18 00:51:44;;;;;;;3.00;1.70;;;;;;;11.97;73.04;98887.63;4349038;32;33363;-77
2022/09/18 00:54:28;;;;;;;4.50;1.80;;;;;;;11.36;74.97;98872.34;4349211;32;33741;-76
2022/09/18 00:56:58;;;;;;;3.70;1.95;;;;;;;11.18;76.19;98879.13;4349260;32;34262;-77
2022/09/18 00:59:29;;;;;;;3.80;1.80;;;;;;;11.23;75.19;98868.28;4362241;32;33748;-76
2022/09/18 01:01:58;;;;;;;4.12;1.98;;;;;;;10.99;76.13;98889.78;4362578;32;33165;-76
2022/09/18 01:04:29;;;;;;;4.65;1.92;;;;;;;11.12;75.29;98882.94;4349059;32;33879;-75
2022/09/18 01:07:12;;;;;;;4.82;1.80;;;;;;;11.53;73.07;98885.56;4362632;32;34975;-77
2022/09/18 01:09:58;;;;;;;3.17;1.73;;;;;;;11.73;72.96;98895.59;4362171;32;34330;-76
2022/09/18 01:12:35;;;;;;;3.15;1.77;;;;;;;11.13;74.77;98895.44;4362639;32;34013;-77
2022/09/18 01:15:11;;;;;;;5.60;1.75;;;;;;;10.96;74.92;98895.72;4362290;32;33623;-77
2022/09/18 01:18:09;;;;;;;3.85;1.80;;;;;;;11.03;74.65;98898.16;4362487;32;35256;-78
2022/09/18 01:21:04;;;;;;;5.32;1.70;;;;;;;10.98;74.18;98898.19;4362074;32;34275;-78
2022/09/18 01:23:41;;;;;;;5.60;1.62;;;;;;;11.66;71.39;98903.19;4362453;32;33760;-79
2022/09/18 01:26:24;;;;;;;2.25;1.62;;;;;;;11.44;71.42;98906.25;4362500;32;34711;-78
2022/09/18 01:29:10;;;;;;;3.90;1.73;;;;;;;11.27;72.34;98907.38;4361954;32;34205;-77
2022/09/18 01:31:43;;;;;;;4.75;1.77;;;;;;;11.62;70.71;98929.28;4349041;32;33563;-77
2022/09/18 01:34:17;;;;;;;3.50;1.60;;;;;;;11.81;69.18;98930.31;4348805;32;34150;-76
2022/09/18 01:36:48;;;;;;;2.28;1.60;;;;;;;11.46;70.80;98925.81;4362367;32;34651;-77
2022/09/18 01:39:40;;;;;;;4.05;1.75;;;;;;;11.40;70.65;98944.03;4362447;32;34275;-75
2022/09/18 01:42:09;;;;;;;4.53;1.60;;;;;;;11.98;68.09;98946.31;4362562;32;34286;-77
2022/09/18 01:44:40;;;;;;;3.05;1.70;;;;;;;11.93;68.63;98957.22;4362153;32;34185;-78
2022/09/18 01:47:10;;;;;;;2.40;1.40;;;;;;;11.61;68.84;98952.13;4349183;32;35237;-78
2022/09/18 01:49:44;;;;;;;3.12;1.50;;;;;;;11.20;70.17;98952.97;4348854;32;34632;-77
2022/09/18 01:52:19;;;;;;;3.93;1.73;;;;;;;11.65;68.94;98964.87;4362348;32;33877;-78
2022/09/18 01:54:48;;;;;;;4.35;1.62;;;;;;;11.73;67.74;98976.28;4336943;32;33469;-78
2022/09/18 01:57:21;;;;;;;3.75;1.60;;;;;;;11.58;68.75;98972.50;4348095;32;33807;-78
2022/09/18 01:59:55;;;;;;;3.70;1.73;;;;;;;11.42;68.87;98977.13;4348376;32;34040;-77
2022/09/18 02:02:31;;;;;;;6.93;1.50;;;;;;;11.90;66.99;98983.06;4348852;32;34088;-78
2022/09/18 02:05:02;;;;;;;3.05;1.37;;;;;;;11.77;67.61;98988.22;4348826;32;33441;-78
2022/09/18 02:07:36;;;;;;;3.40;1.50;;;;;;;11.76;67.55;98990.13;4349113;32;34016;-78
2022/09/18 02:10:04;;;;;;;2.53;1.40;;;;;;;11.08;70.57;98987.75;4348589;32;33936;-74
2022/09/18 02:12:35;;;;;;;2.72;1.30;;;;;;;11.58;68.19;98993.44;4362368;32;33931;-77
2022/09/18 02:15:09;;;;;;;3.30;1.40;;;;;;;11.18;68.98;98990.44;4348775;32;33405;-78
2022/09/18 02:17:41;;;;;;;1.45;1.20;;;;;;;11.14;68.91;98994.78;4362105;32;34852;-78
2022/09/18 02:20:15;;;;;;;2.17;1.45;;;;;;;10.92;69.68;98995.06;4362013;32;34328;-78
2022/09/18 02:22:43;;;;;;;5.00;1.55;;;;;;;11.22;68.17;98999.69;4361858;32;34454;-78
2022/09/18 02:25:12;;;;;;;3.70;1.65;;;;;;;11.47;67.54;99008.94;4348855;32;33485;-78
2022/09/18 02:27:40;;;;;;;2.15;1.50;;;;;;;11.37;67.28;99007.03;4348587;32;34129;-78
2022/09/18 02:30:08;;;;;;;2.25;1.58;;;;;;;11.29;67.36;99011.13;4348145;32;34204;-78
2022/09/18 02:32:37;;;;;;;1.95;1.40;;;;;;;11.31;66.59;99018.97;4361976;32;34651;-78
2022/09/18 02:35:07;;;;;;;3.60;1.40;;;;;;;11.47;66.67;99022.50;4348691;32;33425;-79
2022/09/18 02:38:21;;;;;;;1.83;1.20;;;;;;;11.05;67.93;99020.84;4360999;32;33647;-78
2022/09/18 02:40:57;;;;;;;2.60;1.40;;;;;;;11.06;67.90;99019.78;4348578;32;33846;-78
2022/09/18 02:44:00;;;;;;;3.85;1.30;;;;;;;11.07;67.05;99032.25;4348545;32;33943;-78
2022/09/18 02:46:38;;;;;;;2.35;1.20;;;;;;;11.02;67.62;99032.25;4353651;32;33610;-77
2022/09/18 02:49:34;;;;;;;1.85;1.40;;;;;;;11.11;67.04;99032.53;4348671;32;33403;-76
2022/09/18 02:52:06;;;;;;;3.10;1.45;;;;;;;11.37;66.57;99034.19;4361477;32;34290;-77
2022/09/18 02:54:41;;;;;;;2.70;1.30;;;;;;;11.03;66.86;99036.59;4348593;32;33929;-74
2022/09/18 02:57:19;;;;;;;2.12;1.42;;;;;;;11.03;67.18;99033.87;4348457;32;33292;-76
2022/09/18 02:59:50;;;;;;;1.40;1.30;;;;;;;11.17;66.65;99036.91;4361556;32;34520;-76
2022/09/18 03:02:21;;;;;;;2.45;1.25;;;;;;;11.34;65.93;99039.34;4361851;32;33973;-77
2022/09/18 03:04:50;;;;;;;1.87;1.40;;;;;;;11.38;65.40;99035.00;4348375;32;34201;-77
2022/09/18 03:07:17;;;;;;;1.80;1.40;;;;;;;11.39;65.11;99045.59;4348461;32;33433;-77
2022/09/18 03:09:45;;;;;;;3.53;1.40;;;;;;;11.26;65.56;99040.69;4361244;32;34059;-78
2022/09/18 03:12:14;;;;;;;1.30;1.00;;;;;;;11.38;65.10;99045.84;4361927;32;34443;-76
2022/09/18 03:14:43;;;;;;;3.28;1.10;;;;;;;11.55;64.69;99048.31;4348544;32;34677;-76
2022/09/18 03:17:11;;;;;;;2.72;1.20;;;;;;;11.23;65.44;99049.38;4348096;32;34176;-76
2022/09/18 03:19:39;;;;;;;1.48;1.37;;;;;;;11.17;65.41;99059.44;4361597;32;33915;-77
2022/09/18 03:22:06;;;;;;;1.48;1.15;;;;;;;11.16;65.64;99068.66;4361137;32;35092;-76
2022/09/18 03:24:34;;;;;;;2.12;1.20;;;;;;;10.96;66.45;99065.91;4361579;32;33906;-76
2022/09/18 03:27:02;;;;;;;3.17;1.30;;;;;;;11.30;64.71;99066.22;4361469;32;33112;-77
2022/09/18 03:29:30;;;;;;;2.87;1.50;;;;;;;10.81;66.16;99059.34;4361171;32;34640;-78
2022/09/18 03:31:58;;;;;;;2.40;1.40;;;;;;;11.23;65.27;99069.22;4361200;32;33875;-77
2022/09/18 03:34:25;;;;;;;1.00;0.90;;;;;;;11.17;66.04;99072.19;4361524;32;34080;-76
2022/09/18 03:36:54;;;;;;;2.75;1.30;;;;;;;11.37;65.85;99082.25;4361278;32;34083;-77
2022/09/18 03:39:21;;;;;;;3.45;1.35;;;;;;;11.23;65.60;99069.22;4360899;32;34697;-77
2022/09/18 03:41:49;;;;;;;2.55;1.40;;;;;;;11.27;65.71;99069.47;4361449;32;34952;-78
2022/09/18 03:44:16;;;;;;;2.10;1.33;;;;;;;11.59;64.53;99082.81;4361179;32;34550;-77
2022/09/18 03:46:44;;;;;;;2.55;1.30;;;;;;;11.57;64.67;99084.97;4361273;32;33574;-77
2022/09/18 03:49:12;;;;;;;2.53;1.40;;;;;;;11.51;64.92;99086.06;4361091;32;34396;-78
2022/09/18 03:51:40;;;;;;;1.87;1.08;;;;;;;11.23;65.60;99090.94;4360859;32;34223;-78
2022/09/18 03:54:07;;;;;;;2.97;1.52;;;;;;;11.41;64.68;99091.50;4361143;32;33961;-77
2022/09/18 03:56:37;;;;;;;2.22;1.60;;;;;;;11.62;64.47;99089.59;4361098;32;35149;-77
2022/09/18 03:59:05;;;;;;;3.85;1.55;;;;;;;11.85;63.24;99096.38;4361224;32;34021;-78
2022/09/18 04:01:33;;;;;;;2.15;1.42;;;;;;;11.24;65.82;99099.91;4358274;32;34259;-77
2022/09/18 04:04:03;;;;;;;4.22;1.50;;;;;;;11.36;65.60;99092.31;4345977;33;33931;-77
2022/09/18 04:06:34;;;;;;;3.72;1.50;;;;;;;11.01;66.72;99101.19;4346091;33;34092;-77
2022/09/18 04:09:03;;;;;;;2.62;1.60;;;;;;;9.98;69.80;99108.81;4346059;33;34074;-77
2022/09/18 04:11:31;;;;;;;2.55;1.60;;;;;;;10.88;67.55;99103.34;4346008;33;35309;-77
2022/09/18 04:13:59;;;;;;;3.85;1.83;;;;;;;10.47;68.53;99107.78;4343273;33;90382;-77
2022/09/18 04:16:28;;;;;;;1.95;1.42;;;;;;;10.35;69.50;99107.19;4346003;33;33301;-78
2022/09/18 04:18:55;;;;;;;2.53;1.40;;;;;;;11.27;66.02;99104.78;4347860;32;33957;-76
2022/09/18 04:21:23;;;;;;;1.65;1.50;;;;;;;10.93;66.64;99113.41;4362833;32;34134;-77
2022/09/18 04:23:50;;;;;;;2.87;1.40;;;;;;;10.72;67.77;99117.94;4360247;32;33688;-77
2022/09/18 04:26:18;;;;;;;2.22;1.45;;;;;;;11.20;65.95;99120.53;4356281;32;33356;-77
2022/09/18 04:28:46;;;;;;;4.50;1.40;;;;;;;10.71;67.16;99119.00;4358033;32;33887;-76
2022/09/18 04:31:14;;;;;;;3.10;1.25;;;;;;;10.77;67.74;99117.13;4349260;32;34184;-77
2022/09/18 04:33:41;;;;;;;2.58;1.50;;;;;;;10.79;67.44;99112.25;4363072;32;34701;-77
2022/09/18 04:36:09;;;;;;;2.83;1.50;;;;;;;10.86;67.26;99119.09;4362784;32;34229;-77
2022/09/18 04:38:38;;;;;;;1.70;1.35;;;;;;;10.68;68.40;99116.81;4362867;32;34775;-79
2022/09/18 04:41:05;;;;;;;1.60;1.20;;;;;;;11.10;66.57;99113.19;4362686;32;34301;-78
2022/09/18 04:43:33;;;;;;;2.17;1.30;;;;;;;11.23;65.82;99119.97;4362237;32;34149;-76
2022/09/18 04:46:01;;;;;;;4.20;1.20;;;;;;;10.65;67.78;99130.94;4362618;32;33783;-77
2022/09/18 04:48:29;;;;;;;1.73;1.20;;;;;;;10.67;67.23;99132.28;4362788;32;34593;-76
2022/09/18 04:50:58;;;;;;;2.83;1.37;;;;;;;11.25;65.10;99134.94;4362549;32;32541;-77
2022/09/18 04:53:27;;;;;;;2.33;1.35;;;;;;;11.37;64.38;99129.25;4362731;32;33958;-77
2022/09/18 04:55:54;;;;;;;4.35;2.15;;;;;;;10.93;67.87;99145.13;4362600;32;33203;-77
2022/09/18 04:58:22;;;;;;;2.90;1.90;;;;;;;10.51;67.96;99143.31;4362500;32;33895;-76
2022/09/18 05:00:50;;;;;;;1.40;1.23;;;;;;;11.40;65.86;99146.91;4362931;32;35165;-76
2022/09/18 05:03:19;;;;;;;1.75;1.40;;;;;;;11.13;65.37;99141.69;4363022;32;33617;-76
2022/09/18 05:05:48;;;;;;;2.53;1.23;;;;;;;11.82;62.49;99143.16;4362534;32;33439;-76
2022/09/18 05:08:16;;;;;;;1.33;1.10;;;;;;;11.36;64.72;99154.78;4362908;32;34803;-77
2022/09/18 05:10:44;;;;;;;1.17;0.98;;;;;;;11.29;64.63;99144.19;4362623;32;35099;-76
2022/09/18 05:13:11;;;;;;;2.45;1.27;;;;;;;11.48;63.26;99147.19;4362643;32;33869;-76
2022/09/18 05:15:39;;;;;;;3.55;1.17;;;;;;;11.62;62.33;99146.66;4362787;32;34341;-75
2022/09/18 05:18:10;;;;;;;1.77;1.48;;;;;;;11.32;63.92;99152.84;4362657;32;33969;-78
2022/09/18 05:20:38;;;;;;;2.58;1.15;;;;;;;11.40;63.74;99149.63;4362397;32;34344;-78
2022/09/18 05:23:06;;;;;;;2.33;1.20;;;;;;;11.30;63.89;99153.13;4362683;32;34085;-81
2022/09/18 05:25:35;;;;;;;1.95;1.17;;;;;;;11.43;64.29;99159.97;4362768;32;32843;-81
2022/09/18 05:28:03;;;;;;;2.78;1.52;;;;;;;11.63;63.70;99162.69;4362882;32;34189;-80
2022/09/18 05:30:31;;;;;;;1.75;1.42;;;;;;;11.41;65.48;99149.34;4361618;32;34122;-81
2022/09/18 05:33:02;;;;;;;3.05;1.70;;;;;;;12.02;63.43;99162.19;4361958;32;34781;-80
2022/09/18 05:35:31;;;;;;;2.10;1.80;;;;;;;12.59;60.45;99162.09;4362480;32;32995;-81
2022/09/18 05:37:59;;;;;;;1.70;1.20;;;;;;;12.95;58.13;99157.34;4348961;32;34109;-79
2022/09/18 05:40:30;;;;;;;2.08;1.15;;;;;;;12.99;58.76;99158.41;4361551;32;34886;-81
2022/09/18 05:42:58;;;;;;;1.23;1.12;;;;;;;12.98;58.75;99161.41;4362146;32;34489;-79
2022/09/18 05:45:25;;;;;;;1.20;1.00;;;;;;;13.51;57.36;99173.41;4348508;32;33481;-78
2022/09/18 05:47:54;;;;;;;1.62;1.00;;;;;;;13.60;58.74;99162.72;4362375;32;33806;-79
2022/09/18 05:50:22;;;;;;;1.20;0.90;;;;;;;13.95;55.27;99169.84;4362514;32;33788;-79
2022/09/18 05:52:58;;;;;;;2.72;1.25;;;;;;;14.01;56.44;99173.34;4362167;32;33864;-80
2022/09/18 05:55:27;;;;;;;1.15;0.90;;;;;;;14.14;55.30;99169.94;4348793;32;34237;-77
2022/09/18 05:57:59;;;;;;;2.70;1.10;;;;;;;13.95;55.53;99166.28;4362350;32;33555;-80
2022/09/18 06:00:29;;;;;;;1.90;1.08;;;;;;;13.80;56.75;99169.13;4362289;32;35589;-79
2022/09/18 06:03:08;;;;;;;1.48;0.98;;;;;;;13.92;57.80;99175.06;4362179;32;33610;-80
2022/09/18 06:05:36;;;;;;;1.10;0.90;;;;;;;14.11;57.48;99170.53;4360678;32;34080;-81
2022/09/18 06:08:06;;;;;;;1.67;1.00;;;;;;;14.52;54.94;99170.13;4360570;32;34692;-79
2022/09/18 06:10:36;;;;;;;3.08;1.33;;;;;;;14.83;54.86;99169.00;4361610;32;34751;-81
2022/09/18 06:13:10;;;;;;;1.10;1.00;;;;;;;14.94;54.97;99170.50;4361676;32;34763;-81
2022/09/18 06:15:38;;;;;;;3.30;1.33;;;;;;;15.54;53.23;99173.53;4349213;32;34075;-80
2022/09/18 06:18:09;;;;;;;2.45;1.20;;;;;;;15.30;53.39;99179.06;4362186;32;33881;-79
2022/09/18 06:20:36;;;;;;;1.12;1.02;;;;;;;15.13;53.87;99184.22;4361999;32;34924;-82
2022/09/18 06:23:04;;;;;;;1.05;0.80;;;;;;;15.28;52.71;99183.22;4361439;32;33797;-80
2022/09/18 06:25:33;;;;;;;0.90;0.80;;;;;;;15.11;52.74;99189.16;4361645;32;33819;-80
2022/09/18 06:28:02;;;;;;;3.72;1.27;;;;;;;15.10;53.46;99193.81;4361848;32;34501;-78
2022/09/18 06:30:33;;;;;;;2.85;1.10;;;;;;;14.87;54.95;99194.63;4361724;32;34061;-79
2022/09/18 06:33:04;;;;;;;2.30;0.98;;;;;;;14.89;54.46;99195.16;4361426;32;34021;-79
2022/09/18 06:35:33;;;;;;;1.98;1.02;;;;;;;14.61;57.25;99205.03;4361407;32;34067;-80
2022/09/18 06:38:02;;;;;;;1.20;0.80;;;;;;;15.01;54.11;99198.31;4348163;32;33999;-78
2022/09/18 06:40:34;;;;;;;2.45;1.00;;;;;;;14.98;53.90;99196.13;4361856;32;33963;-80
2022/09/18 06:43:02;;;;;;;2.25;1.08;;;;;;;14.95;53.21;99196.75;4361537;32;33940;-80
2022/09/18 06:45:33;;;;;;;0.98;0.90;;;;;;;14.54;55.07;99189.78;4348454;32;33796;-79
2022/09/18 06:48:01;;;;;;;1.95;1.10;;;;;;;14.61;54.73;99181.25;4361895;32;34600;-83
2022/09/18 06:50:29;;;;;;;4.60;1.20;;;;;;;13.98;58.51;99184.03;4361609;32;33899;-79
2022/09/18 06:53:05;;;;;;;2.28;1.00;;;;;;;14.04;57.92;99174.66;4361426;32;33937;-79
2022/09/18 06:55:39;;;;;;;2.45;1.20;;;;;;;14.52;55.39;99183.78;4361846;32;33534;-79
2022/09/18 06:58:07;;;;;;;1.37;0.80;;;;;;;14.33;56.02;99189.16;4359962;32;34405;-79
2022/09/18 07:00:34;;;;;;;1.20;1.00;;;;;;;14.32;55.54;99189.47;4351905;32;34279;-89
2022/09/18 07:03:02;;;;;;;2.03;0.93;;;;;;;14.35;55.78;99178.75;4361123;32;34730;-83
2022/09/18 07:05:40;;;;;;;1.15;0.98;;;;;;;14.29;54.23;99184.56;4360940;32;32777;-83
2022/09/18 07:08:08;;;;;;;1.08;0.93;;;;;;;14.27;54.38;99184.84;4361396;32;34726;-82
2022/09/18 07:10:36;;;;;;;2.47;1.00;;;;;;;14.42;55.45;99180.34;4361587;32;35279;-82
2022/09/18 07:13:04;;;;;;;1.87;1.05;;;;;;;14.43;54.83;99192.91;4359744;32;34775;-79
2022/09/18 07:15:33;;;;;;;1.85;1.00;;;;;;;14.51;53.90;99197.72;4360791;32;33988;-79
2022/09/18 07:18:06;;;;;;;2.25;0.90;;;;;;;14.42;54.54;99207.63;4359946;32;34022;-85
2022/09/18 07:20:34;;;;;;;1.42;0.85;;;;;;;14.54;53.95;99206.16;4356103;32;34664;-79
2022/09/18 07:23:02;;;;;;;1.25;1.00;;;;;;;14.86;52.03;99198.47;4361020;32;33521;-84
2022/09/18 07:25:35;;;;;;;1.30;0.85;;;;;;;14.67;51.63;99212.06;4361270;32;31865;-78
2022/09/18 07:28:06;;;;;;;4.03;0.88;;;;;;;14.30;52.73;99205.31;4357677;32;34048;-82
2022/09/18 07:30:39;;;;;;;1.40;0.80;;;;;;;13.99;52.46;99221.91;4359444;32;34044;-80
2022/09/18 07:33:07;;;;;;;1.08;0.80;;;;;;;14.08;53.10;99220.22;4360567;32;33909;-82
2022/09/18 07:35:39;;;;;;;0.90;0.70;;;;;;;13.89;52.73;99220.06;4360757;32;33943;-80
2022/09/18 07:38:08;;;;;;;1.12;0.77;;;;;;;13.97;53.47;99221.38;4359079;32;33686;-81
2022/09/18 07:40:36;;;;;;;2.12;0.80;;;;;;;14.42;52.58;99215.81;4360467;32;34187;-83
2022/09/18 07:43:07;;;;;;;1.23;0.73;;;;;;;14.25;52.43;99236.16;4358276;32;34255;-84
2022/09/18 07:45:35;;;;;;;3.42;0.90;;;;;;;14.40;52.05;99237.13;4360005;32;33620;-80
2022/09/18 07:48:05;;;;;;;4.07;0.93;;;;;;;14.65;49.99;99236.13;4360320;32;34828;-82
2022/09/18 07:50:36;;;;;;;1.67;0.90;;;;;;;14.65;49.07;99255.22;4346794;32;34023;-80
2022/09/18 07:53:04;;;;;;;2.97;1.12;;;;;;;14.62;50.26;99240.25;4359837;32;34061;-83
2022/09/18 07:55:34;;;;;;;5.05;0.90;;;;;;;14.30;49.78;99240.78;4362110;32;33480;-83
2022/09/18 07:58:05;;;;;;;4.28;1.17;;;;;;;13.68;52.97;99238.47;4348303;32;34908;-78
2022/09/18 08:00:36;;;;;;;4.12;1.77;;;;;;;14.33;53.16;99245.66;4362799;32;33560;-83
2022/09/18 08:03:07;;;;;;;4.43;1.58;;;;;;;14.66;51.38;99240.47;4362610;32;34179;-86
2022/09/18 08:05:38;;;;;;;1.92;0.95;;;;;;;14.53;52.31;99255.56;4362060;32;33806;-80
2022/09/18 08:08:08;;;;;;;2.05;1.08;;;;;;;15.14;49.75;99252.25;4362380;32;34641;-80
2022/09/18 08:10:39;;;;;;;1.37;0.80;;;;;;;14.82;50.55;99250.12;4349146;32;34183;-85
2022/09/18 08:13:08;;;;;;;1.30;1.02;;;;;;;14.69;51.83;99248.09;4362087;32;34604;-77
2022/09/18 08:15:39;;;;;;;1.20;0.70;;;;;;;14.83;52.53;99248.22;4349291;32;33360;-80
2022/09/18 08:18:12;;;;;;;1.95;0.82;;;;;;;14.77;52.52;99253.75;4361858;32;33595;-82
2022/09/18 08:20:41;;;;;;;1.85;0.90;;;;;;;14.73;52.51;99255.41;4361439;32;34089;-82
2022/09/18 08:23:10;;;;;;;1.83;0.80;;;;;;;14.97;51.05;99251.91;4361424;32;34762;-79
2022/09/18 08:25:40;;;;;;;1.40;0.75;;;;;;;15.30;51.66;99252.06;4361805;32;34148;-79
2022/09/18 08:28:08;;;;;;;1.50;0.93;;;;;;;15.23;50.41;99257.88;4361074;32;34786;-78
2022/09/18 08:30:36;;;;;;;0.98;0.70;;;;;;;15.16;49.43;99243.72;4348239;32;34185;-86
2022/09/18 08:33:06;;;;;;;1.85;0.90;;;;;;;15.08;50.05;99253.41;4362379;32;34059;-79
2022/09/18 08:35:33;;;;;;;2.33;0.80;;;;;;;15.24;50.02;99247.75;4355850;32;33564;-77
2022/09/18 08:38:03;;;;;;;1.00;0.85;;;;;;;15.54;49.25;99258.28;4361767;32;33906;-78
2022/09/18 08:40:41;;;;;;;0.95;0.77;;;;;;;15.16;48.08;99260.97;4359380;32;35130;-73
2022/09/18 08:43:47;;;;;;;1.77;0.80;;;;;;;14.64;53.01;99250.84;4359927;32;34818;-82
2022/09/18 08:46:19;;;;;;;1.35;0.88;;;;;;;15.37;48.20;99271.63;4345456;32;33838;-83
2022/09/18 08:49:12;;;;;;;1.25;0.80;;;;;;;14.79;50.10;99253.44;4354168;32;33333;-81
2022/09/18 08:51:44;;;;;;;1.80;0.90;;;;;;;15.31;48.15;99256.41;4347465;32;32382;-78
2022/09/18 08:54:18;;;;;;;0.77;0.70;;;;;;;15.36;50.38;99265.38;4350882;32;33376;-78
2022/09/18 08:56:46;;;;;;;1.15;0.70;;;;;;;15.31;50.18;99273.62;4345575;32;34432;-79
2022/09/18 08:59:25;;;;;;;0.82;0.80;;;;;;;15.21;51.22;99268.28;4350864;32;34789;-80
2022/09/18 09:02:18;;;;;;;1.50;0.80;;;;;;;15.16;47.68;99269.16;4361386;32;35087;-85
2022/09/18 09:04:57;;;;;;;1.30;0.70;;;;;;;14.65;50.54;99277.87;4361700;32;34887;-86
2022/09/18 09:07:33;;;;;;;1.42;0.80;;;;;;;14.88;49.74;99279.03;4361685;32;33911;-80
2022/09/18 09:10:39;;;;;;;1.33;0.70;;;;;;;15.01;48.99;99269.34;4347887;32;34014;-84
2022/09/18 09:13:30;;;;;;;2.67;0.80;;;;;;;14.62;49.53;99283.94;4321505;32;33984;-81
2022/09/18 09:16:06;;;;;;;2.35;0.80;;;;;;;14.28;49.18;99279.25;4347366;32;34089;-77
2022/09/18 09:18:51;;;;;;;3.12;1.12;;;;;;;14.22;50.59;99274.94;4350527;32;33054;-78
2022/09/18 09:21:30;;;;;;;1.05;0.80;;;;;;;14.69;50.01;99278.94;4358739;32;34011;-81
2022/09/18 09:24:35;;;;;;;1.58;0.90;;;;;;;14.49;50.56;99277.19;4356355;32;33797;-77
2022/09/18 09:27:16;;;;;;;2.28;0.77;;;;;;;14.74;50.32;99278.06;4361726;32;32846;-75
2022/09/18 09:29:50;;;;;;;0.90;0.80;;;;;;;14.43;50.40;99285.69;4360117;32;33324;-74
2022/09/18 09:32:24;;;;;;;3.47;1.00;;;;;;;14.52;51.44;99273.06;4359891;32;34729;-84
2022/09/18 09:34:57;;;;;;;4.05;1.23;;;;;;;14.62;50.60;99280.34;4360793;32;34076;-79
2022/09/18 09:37:34;;;;;;;3.97;1.40;;;;;;;14.38;52.71;99283.00;4361631;32;34068;-87
2022/09/18 09:40:10;;;;;;;3.33;1.40;;;;;;;14.47;50.53;99271.19;4360695;32;33378;-78
2022/09/18 09:43:16;;;;;;;5.95;1.27;;;;;;;14.67;49.41;99286.59;4350231;32;33422;-78
2022/09/18 09:45:48;;;;;;;0.98;0.90;;;;;;;14.08;50.97;99282.94;4352255;32;33748;-81
2022/09/18 09:48:33;;;;;;;2.25;1.17;;;;;;;14.46;49.77;99288.66;4347863;32;34060;-86
2022/09/18 09:51:04;;;;;;;1.17;0.75;;;;;;;14.41;50.35;99294.16;4347707;32;33776;-77
2022/09/18 09:53:32;;;;;;;2.05;1.20;;;;;;;14.56;50.37;99294.06;4361335;32;33969;-79
2022/09/18 09:56:10;;;;;;;1.23;0.95;;;;;;;14.57;50.46;99297.59;4360893;32;34420;-78
2022/09/18 09:59:06;;;;;;;1.25;1.00;;;;;;;14.41;51.37;99296.09;4347739;32;33848;-78
2022/09/18 10:01:44;;;;;;;1.45;1.02;;;;;;;14.21;52.18;99283.38;4360955;32;34276;-77
2022/09/18 10:04:33;;;;;;;1.12;0.82;;;;;;;14.36;52.46;99297.75;4359912;32;34739;-78
2022/09/18 10:07:13;;;;;;;1.95;0.90;;;;;;;13.99;53.51;99303.72;4357516;32;34889;-83
2022/09/18 10:10:05;;;;;;;0.82;0.80;;;;;;;13.98;53.25;99313.00;4351713;32;34727;-80
2022/09/18 10:12:52;;;;;;;2.25;0.80;;;;;;;14.35;51.75;99322.59;4359912;32;33401;-81
2022/09/18 10:15:29;;;;;;;1.58;0.80;;;;;;;14.12;51.37;99321.38;4361380;32;33673;-88
2022/09/18 10:18:00;;;;;;;1.00;0.75;;;;;;;14.22;51.85;99310.41;4359750;32;34120;-80
2022/09/18 10:20:30;;;;;;;1.60;0.90;;;;;;;14.04;51.13;99313.78;4349549;32;33859;-86
2022/09/18 10:23:01;;;;;;;1.25;0.80;;;;;;;14.45;50.43;99322.53;4360077;32;33544;-76
2022/09/18 10:25:38;;;;;;;0.88;0.70;;;;;;;15.01;49.02;99310.31;4360732;32;33978;-76
2022/09/18 10:28:11;;;;;;;1.37;0.80;;;;;;;14.57;49.04;99308.53;4361417;32;35162;-80
2022/09/18 10:31:03;;;;;;;0.70;0.70;;;;;;;14.91;48.86;99316.69;4361369;32;34533;-88
2022/09/18 10:33:41;;;;;;;2.05;0.70;;;;;;;14.79;48.89;99307.25;4360053;32;34206;-88
2022/09/18 10:36:40;;;;;;;0.70;0.62;;;;;;;14.60;49.96;99312.59;4361003;32;33986;-76
2022/09/18 10:39:17;;;;;;;3.28;0.80;;;;;;;14.95;48.96;99315.00;4358513;32;33919;-76
2022/09/18 10:41:45;;;;;;;4.05;1.00;;;;;;;15.30;47.75;99306.72;4361225;32;34154;-75
2022/09/18 10:44:13;;;;;;;2.97;0.98;;;;;;;14.99;49.63;99309.78;4351281;32;34286;-77
2022/09/18 10:46:53;;;;;;;1.55;0.85;;;;;;;14.55;49.76;99310.72;4346334;33;34677;-79
2022/09/18 10:49:32;;;;;;;1.00;0.70;;;;;;;15.62;47.26;99322.47;4345293;33;34309;-78
2022/09/18 10:52:34;;;;;;;2.40;0.98;;;;;;;15.20;47.63;99312.28;4335887;32;33758;-81
2022/09/18 10:55:06;;;;;;;0.95;0.70;;;;;;;15.32;47.87;99320.91;4356697;32;33528;-85
2022/09/18 10:57:34;;;;;;;1.15;0.80;;;;;;;15.54;46.92;99312.97;4347721;32;33628;-85
2022/09/18 11:00:18;;;;;;;1.02;0.80;;;;;;;14.96;48.26;99338.47;4360022;32;34172;-82
2022/09/18 11:02:47;;;;;;;1.92;1.00;;;;;;;15.43;47.37;99318.88;4355982;32;33800;-79
2022/09/18 11:05:17;;;;;;;3.12;1.42;;;;;;;15.71;47.00;99309.78;4361193;32;34241;-79
2022/09/18 11:07:48;;;;;;;1.37;0.90;;;;;;;15.55;48.22;99320.09;4356814;32;34028;-81
2022/09/18 11:10:21;;;;;;;1.48;0.90;;;;;;;15.43;48.00;99319.69;4358666;32;35004;-83
2022/09/18 11:13:01;;;;;;;1.40;1.25;;;;;;;15.36;48.18;99311.84;4349001;32;33617;-80
2022/09/18 11:15:33;;;;;;;1.87;0.80;;;;;;;15.80;47.71;99312.69;4337052;32;33675;-80
2022/09/18 11:18:03;;;;;;;1.05;0.80;;;;;;;15.78;49.51;99310.22;4360328;32;33955;-81
2022/09/18 11:20:39;;;;;;;1.10;0.82;;;;;;;15.84;49.05;99311.00;4353908;32;34276;-83
2022/09/18 11:23:20;;;;;;;0.83;0.70;;;;;;;15.87;47.80;99326.81;4333029;33;33949;-81
2022/09/18 11:26:09;;;;;;;1.85;0.80;;;;;;;15.89;47.41;99321.03;4346547;33;33111;-82
2022/09/18 11:28:38;;;;;;;2.50;1.00;;;;;;;16.07;46.55;99317.53;4346691;33;34650;-82
2022/09/18 11:31:16;;;;;;;1.33;0.80;;;;;;;16.09;45.87;99309.00;4346653;32;34622;-86
2022/09/18 11:33:50;;;;;;;1.10;0.80;;;;;;;16.10;46.22;99311.44;4348486;32;34844;-84
2022/09/18 11:36:27;;;;;;;;;;;;;;;15.92;45.25;99317.75;4350278;32;33760;-83
2022/09/18 11:38:57;;;;;;;4.30;0.85;;;;;;;15.87;44.78;99309.59;4349204;32;35139;-82
2022/09/18 11:41:33;;;;;;;2.95;0.85;;;;;;;15.63;46.21;99304.94;4362632;32;34169;-84
2022/09/18 11:44:03;;;;;;;1.42;0.77;;;;;;;16.14;46.27;99306.19;4363064;32;34652;-85
2022/09/18 11:46:48;;;;;;;1.83;0.90;;;;;;;16.32;45.85;99308.09;4362849;32;34294;-84
2022/09/18 11:49:20;;;;;;;2.15;0.80;;;;;;;15.91;46.00;99300.50;4348987;32;34662;-82
2022/09/18 11:52:04;;;;;;;1.52;0.90;;;;;;;16.00;47.22;99295.16;4348841;32;34348;-81
2022/09/18 11:54:40;;;;;;;0.75;0.75;;;;;;;16.22;46.79;99300.06;4349395;32;33623;-85
2022/09/18 11:57:18;;;;;;;1.65;0.80;;;;;;;16.37;44.40;99290.78;4352239;32;33928;-83
2022/09/18 11:59:53;;;;;;;2.67;0.80;;;;;;;16.61;44.08;99296.97;4346507;33;33938;-85
2022/09/18 12:02:49;;;;;;;2.12;0.90;;;;;;;16.86;41.45;99294.09;4347621;33;34715;-80